Time;durP1;ratioP1;P1;durP2;ratioP2;P2;SDS_P1;SDS_P2;PMS_P1;PMS_P2;Temp;Humidity;BMP_temperature;BMP_pressure;BME280_temperature;BME280_humidity;BME280_pressure;Samples;Min_cycle;Max_cycle;Signal;HPM_P1;HPM_P2
2023/03/04 00:00:03;;;;;;;7.47;1.45;;;;;;;5.10;78.11;102724.13;5071554;28;20055;-76
2023/03/04 00:02:35;;;;;;;13.95;1.90;;;;;;;5.09;78.14;102723.34;5071578;28;20061;-76
2023/03/04 00:05:02;;;;;;;5.65;1.20;;;;;;;5.09;78.25;102722.59;5071875;28;20056;-76
2023/03/04 00:07:29;;;;;;;9.05;1.45;;;;;;;5.08;78.24;102724.47;5071613;28;20033;-77
2023/03/04 00:09:55;;;;;;;13.27;1.75;;;;;;;5.10;78.32;102722.25;5072091;28;20041;-76
2023/03/04 00:12:22;;;;;;;12.45;2.22;;;;;;;5.11;78.49;102726.41;5071728;28;20049;-76
2023/03/04 00:14:48;;;;;;;8.43;1.58;;;;;;;5.10;78.66;102724.13;5071676;28;20045;-77
2023/03/04 00:17:15;;;;;;;10.38;1.70;;;;;;;5.10;78.76;102727.53;5071533;28;20045;-76
2023/03/04 00:19:41;;;;;;;11.90;1.73;;;;;;;5.10;78.92;102724.13;5071523;28;20049;-75
2023/03/04 00:22:08;;;;;;;12.65;2.20;;;;;;;5.09;78.80;102723.34;5070434;28;20577;-75
2023/03/04 00:24:35;;;;;;;11.98;1.98;;;;;;;5.11;78.92;102725.66;5071390;28;20099;-75
2023/03/04 00:27:01;;;;;;;10.40;2.30;;;;;;;5.10;78.67;102719.59;5071415;28;20510;-75
2023/03/04 00:29:28;;;;;;;12.73;1.95;;;;;;;5.10;78.99;102724.13;5072061;28;20354;-76
2023/03/04 00:31:55;;;;;;;6.88;1.30;;;;;;;5.11;79.21;102715.09;5073117;28;20525;-75
2023/03/04 00:34:21;;;;;;;9.98;1.45;;;;;;;5.10;79.08;102726.75;5073207;28;20083;-76
2023/03/04 00:36:48;;;;;;;11.25;1.95;;;;;;;5.08;79.09;102726.34;5073626;28;20585;-76
2023/03/04 00:39:16;;;;;;;12.60;1.95;;;;;;;5.08;79.44;102723.72;5073276;28;20045;-76
2023/03/04 00:41:42;;;;;;;7.28;1.45;;;;;;;5.07;79.63;102727.47;5074802;28;20490;-75
2023/03/04 00:44:09;;;;;;;7.22;1.75;;;;;;;5.07;79.65;102724.81;5074045;28;20080;-76
2023/03/04 00:46:35;;;;;;;8.70;1.65;;;;;;;5.07;80.11;102722.19;5074674;28;20049;-76
2023/03/04 00:49:02;;;;;;;12.27;1.90;;;;;;;5.06;79.96;102715.38;5073466;28;20049;-75
2023/03/04 00:51:29;;;;;;;14.65;1.83;;;;;;;5.06;80.38;102725.94;5074273;28;20203;-76
2023/03/04 00:53:55;;;;;;;8.93;2.03;;;;;;;5.05;80.43;102716.50;5074975;28;20095;-76
2023/03/04 00:56:24;;;;;;;15.23;2.95;;;;;;;5.05;80.55;102719.91;5074286;28;20048;-76
2023/03/04 00:58:51;;;;;;;7.88;1.63;;;;;;;5.06;80.51;102720.66;5073945;28;20045;-76
2023/03/04 01:01:17;;;;;;;9.23;1.92;;;;;;;5.06;80.53;102723.31;5072941;28;20060;-76
2023/03/04 01:03:44;;;;;;;10.75;2.13;;;;;;;5.06;80.58;102728.56;5074547;28;20037;-75
2023/03/04 01:06:11;;;;;;;12.52;1.95;;;;;;;5.06;80.70;102720.66;5074251;28;20458;-76
2023/03/04 01:08:38;;;;;;;16.25;1.88;;;;;;;5.05;80.66;102730.47;5074115;28;20429;-76
2023/03/04 01:11:05;;;;;;;11.50;2.38;;;;;;;5.02;80.61;102724.00;5073065;28;20509;-76
2023/03/04 01:13:32;;;;;;;13.10;1.92;;;;;;;5.02;80.63;102715.31;5071564;28;20048;-76
2023/03/04 01:15:58;;;;;;;7.57;1.55;;;;;;;5.03;80.68;102733.44;5074483;28;20072;-76
2023/03/04 01:18:25;;;;;;;4.47;1.70;;;;;;;5.03;80.58;102725.53;5073863;28;20535;-76
2023/03/04 01:20:51;;;;;;;5.38;1.75;;;;;;;5.03;80.69;102722.88;5074310;28;20073;-76
2023/03/04 01:23:18;;;;;;;4.60;1.40;;;;;;;5.05;80.95;102719.13;5074174;28;20204;-76
2023/03/04 01:25:44;;;;;;;8.68;2.08;;;;;;;5.03;81.22;102719.50;5073903;28;20068;-76
2023/03/04 01:28:11;;;;;;;11.40;1.65;;;;;;;5.01;81.38;102719.84;5073389;28;20041;-76
2023/03/04 01:30:37;;;;;;;8.55;1.38;;;;;;;5.01;81.33;102719.06;5073961;28;20044;-76
2023/03/04 01:33:04;;;;;;;13.23;1.58;;;;;;;4.99;80.79;102702.81;5073839;28;20103;-76
2023/03/04 01:35:30;;;;;;;9.55;2.15;;;;;;;4.98;80.52;102703.94;5073700;28;20103;-76
2023/03/04 01:37:57;;;;;;;6.82;1.63;;;;;;;4.98;80.16;102699.41;5074164;28;20045;-76
2023/03/04 01:40:24;;;;;;;8.23;1.75;;;;;;;4.97;80.21;102700.53;5073840;28;20041;-75
2023/03/04 01:42:50;;;;;;;11.35;1.95;;;;;;;4.98;79.87;102696.03;5074610;28;20129;-75
2023/03/04 01:45:19;;;;;;;6.60;1.58;;;;;;;4.97;79.29;102697.91;5073573;28;20049;-76
2023/03/04 01:47:47;;;;;;;10.27;1.80;;;;;;;4.98;79.25;102696.03;5074236;28;20098;-76
2023/03/04 01:50:31;;;;;;;12.32;2.10;;;;;;;4.98;79.53;102690.75;5072200;28;20053;-75
2023/03/04 01:52:58;;;;;;;7.50;1.60;;;;;;;4.99;79.54;102684.34;5072359;28;20072;-76
2023/03/04 01:55:26;;;;;;;6.68;1.40;;;;;;;4.98;79.67;102686.22;5071288;28;20545;-75
2023/03/04 01:57:54;;;;;;;10.95;1.83;;;;;;;4.98;79.53;102685.47;5072435;28;20057;-76
2023/03/04 02:00:32;;;;;;;9.00;1.83;;;;;;;4.97;79.13;102684.69;5073383;28;20049;-75
2023/03/04 02:03:06;;;;;;;7.07;1.27;;;;;;;4.96;78.93;102674.50;5072135;28;20490;-76
2023/03/04 02:05:36;;;;;;;5.55;1.27;;;;;;;4.95;78.89;102684.28;5054778;28;20537;-75
2023/03/04 02:08:03;;;;;;;3.95;1.45;;;;;;;4.95;78.77;102676.38;5073473;28;20037;-76
2023/03/04 02:10:31;;;;;;;8.90;1.75;;;;;;;4.95;78.93;102670.34;5070980;28;20065;-76
2023/03/04 02:12:59;;;;;;;7.65;1.33;;;;;;;4.95;78.60;102675.59;5072112;28;20541;-76
2023/03/04 02:15:27;;;;;;;13.65;1.63;;;;;;;4.95;78.68;102665.06;5071509;28;20044;-76
2023/03/04 02:17:53;;;;;;;3.72;1.52;;;;;;;4.94;78.73;102669.56;5073660;28;20040;-76
2023/03/04 02:20:29;;;;;;;11.02;1.98;;;;;;;4.94;78.66;102659.00;5073268;28;20103;-76
2023/03/04 02:23:06;;;;;;;8.75;1.90;;;;;;;4.93;78.47;102657.50;5071738;28;20049;-76
2023/03/04 02:26:19;;;;;;;11.40;1.50;;;;;;;4.93;78.47;102652.22;5070999;28;20614;-77
2023/03/04 02:28:51;;;;;;;15.85;2.15;;;;;;;4.93;78.31;102652.22;5070048;28;20049;-77
2023/03/04 02:31:30;;;;;;;6.85;1.75;;;;;;;4.93;78.61;102652.22;5072861;28;20091;-77
2023/03/04 02:34:00;;;;;;;7.03;1.30;;;;;;;4.92;78.53;102650.69;5071371;28;20049;-77
2023/03/04 02:36:28;;;;;;;7.05;1.45;;;;;;;4.94;78.58;102647.69;5070988;28;20539;-77
2023/03/04 02:39:02;;;;;;;13.73;1.75;;;;;;;4.93;78.64;102644.28;5071023;28;20056;-77
2023/03/04 02:41:29;;;;;;;9.57;1.73;;;;;;;4.93;78.41;102644.28;5071203;28;20055;-77
2023/03/04 02:43:57;;;;;;;6.25;1.30;;;;;;;4.93;78.71;102643.53;5071519;28;20048;-77
2023/03/04 02:46:25;;;;;;;7.43;1.30;;;;;;;4.93;78.67;102640.88;5070979;28;20055;-77
2023/03/04 02:48:52;;;;;;;5.65;1.30;;;;;;;4.93;78.31;102632.97;5071654;28;20431;-77
2023/03/04 02:51:19;;;;;;;6.60;1.60;;;;;;;4.92;78.52;102639.38;5070527;28;20047;-77
2023/03/04 02:53:46;;;;;;;7.50;1.55;;;;;;;4.91;78.60;102635.19;5070378;28;20049;-76
2023/03/04 02:56:13;;;;;;;6.53;1.35;;;;;;;4.91;78.50;102638.59;5071281;28;20605;-77
2023/03/04 02:58:40;;;;;;;15.60;1.80;;;;;;;4.90;78.37;102637.06;5072520;28;20045;-77
2023/03/04 03:01:08;;;;;;;9.02;1.60;;;;;;;4.89;78.39;102632.91;5071162;28;20437;-77
2023/03/04 03:03:35;;;;;;;9.75;1.60;;;;;;;4.89;78.32;102638.19;5071058;28;20077;-77
2023/03/04 03:06:02;;;;;;;4.03;1.60;;;;;;;4.86;77.14;102646.81;5071171;28;20088;-77
2023/03/04 03:08:29;;;;;;;4.57;0.93;;;;;;;4.85;76.72;102633.97;5070314;28;20041;-77
2023/03/04 03:10:55;;;;;;;10.95;1.67;;;;;;;4.83;77.04;102634.31;5071102;28;20521;-77
2023/03/04 03:13:24;;;;;;;8.50;1.63;;;;;;;4.83;77.08;102623.75;5072132;28;20041;-77
2023/03/04 03:15:51;;;;;;;7.93;1.30;;;;;;;4.83;77.11;102618.50;5070996;28;20509;-77
2023/03/04 03:18:18;;;;;;;7.93;1.27;;;;;;;4.83;77.01;102620.38;5070800;28;20041;-77
2023/03/04 03:20:45;;;;;;;11.45;1.30;;;;;;;4.82;77.11;102610.94;5072352;28;20044;-77
2023/03/04 03:23:12;;;;;;;3.83;1.20;;;;;;;4.82;76.98;102619.59;5071505;28;20060;-77
2023/03/04 03:25:38;;;;;;;7.90;1.45;;;;;;;4.82;77.09;102610.94;5072272;28;20053;-77
2023/03/04 03:28:05;;;;;;;7.80;1.80;;;;;;;4.82;77.32;102616.97;5072392;28;20045;-77
2023/03/04 03:30:32;;;;;;;8.90;1.48;;;;;;;4.82;77.27;102608.28;5070308;28;20041;-78
2023/03/04 03:32:58;;;;;;;8.68;1.02;;;;;;;4.82;77.15;102609.03;5071768;28;20640;-78
2023/03/04 03:35:27;;;;;;;5.82;1.17;;;;;;;4.82;77.44;102611.69;5071457;28;20044;-77
2023/03/04 03:37:55;;;;;;;12.20;1.70;;;;;;;4.83;77.75;102605.28;5072050;28;20045;-78
2023/03/04 03:40:21;;;;;;;9.63;1.33;;;;;;;4.83;77.51;102607.19;5072045;28;20084;-77
2023/03/04 03:42:48;;;;;;;3.70;1.02;;;;;;;4.82;77.81;102609.03;5071839;28;20041;-77
2023/03/04 03:45:14;;;;;;;3.10;1.02;;;;;;;4.81;77.98;102599.59;5072139;28;20049;-78
2023/03/04 03:47:41;;;;;;;2.65;1.13;;;;;;;4.82;77.80;102611.69;5071883;28;20044;-77
2023/03/04 03:50:08;;;;;;;11.55;1.52;;;;;;;4.84;78.01;102608.69;5072007;28;20052;-78
2023/03/04 03:52:34;;;;;;;9.48;1.35;;;;;;;4.81;77.99;102596.97;5071421;28;20037;-77
2023/03/04 03:55:01;;;;;;;7.80;1.33;;;;;;;4.82;78.62;102608.28;5072074;28;20485;-78
2023/03/04 03:57:28;;;;;;;11.07;1.92;;;;;;;4.81;78.71;102607.53;5071382;28;20457;-77
2023/03/04 03:59:55;;;;;;;12.20;1.42;;;;;;;4.82;78.97;102616.19;5071480;28;20049;-77
2023/03/04 04:02:21;;;;;;;4.85;1.33;;;;;;;4.83;79.44;102612.44;5071478;28;20099;-77
2023/03/04 04:04:48;;;;;;;6.25;1.23;;;;;;;4.81;80.40;102609.41;5075498;28;20052;-78
2023/03/04 04:07:15;;;;;;;5.60;1.02;;;;;;;4.78;81.30;102613.53;5074521;28;20048;-78
2023/03/04 04:09:42;;;;;;;7.25;0.98;;;;;;;4.76;81.81;102613.13;5075075;28;20041;-77
2023/03/04 04:12:12;;;;;;;6.78;1.30;;;;;;;4.76;82.08;102612.38;5073867;28;20048;-77
2023/03/04 04:14:38;;;;;;;4.53;0.85;;;;;;;4.75;82.83;102613.47;5074744;28;20672;-77
2023/03/04 04:17:05;;;;;;;8.15;1.25;;;;;;;4.71;82.89;102623.97;5073861;28;20134;-77
2023/03/04 04:19:31;;;;;;;4.18;0.98;;;;;;;4.69;82.80;102616.41;5074611;28;20048;-78
2023/03/04 04:21:58;;;;;;;10.90;1.55;;;;;;;4.71;82.67;102617.94;5074697;28;20593;-77
2023/03/04 04:24:24;;;;;;;6.13;1.15;;;;;;;4.71;82.68;102615.28;5073344;28;20052;-77
2023/03/04 04:26:51;;;;;;;12.02;1.60;;;;;;;4.70;82.88;102611.91;5075191;28;20140;-78
2023/03/04 04:29:17;;;;;;;6.78;1.20;;;;;;;4.71;82.19;102610.03;5073319;28;20079;-78
2023/03/04 04:31:44;;;;;;;5.65;1.20;;;;;;;4.71;81.86;102615.28;5074741;28;20045;-77
2023/03/04 04:34:10;;;;;;;6.78;1.13;;;;;;;4.71;81.95;102613.41;5074416;28;20045;-77
2023/03/04 04:36:37;;;;;;;5.95;0.88;;;;;;;4.70;81.58;102614.53;5074036;28;20454;-77
2023/03/04 04:39:03;;;;;;;6.40;1.88;;;;;;;4.69;82.07;102620.94;5075150;28;20041;-77
2023/03/04 04:41:36;;;;;;;5.53;1.20;;;;;;;4.67;82.04;102625.78;5074348;28;20139;-77
2023/03/04 04:44:04;;;;;;;7.00;1.13;;;;;;;4.67;82.06;102634.47;5074636;28;20085;-77
2023/03/04 04:46:31;;;;;;;6.90;1.63;;;;;;;4.67;82.03;102617.88;5074263;28;20049;-77
2023/03/04 04:48:58;;;;;;;8.75;1.45;;;;;;;4.67;81.68;102617.88;5074811;28;20045;-77
2023/03/04 04:51:24;;;;;;;6.13;1.08;;;;;;;4.66;81.49;102621.63;5071278;28;20080;-77
2023/03/04 04:53:53;;;;;;;5.57;1.38;;;;;;;4.66;81.44;102626.91;5074771;28;20045;-77
2023/03/04 04:56:25;;;;;;;9.27;1.35;;;;;;;4.67;81.54;102618.63;5074260;28;20045;-77
2023/03/04 04:58:52;;;;;;;5.47;1.70;;;;;;;4.67;81.36;102623.16;5074840;28;20410;-77
2023/03/04 05:01:19;;;;;;;4.05;0.98;;;;;;;4.67;80.61;102617.88;5072931;28;20501;-77
2023/03/04 05:03:48;;;;;;;8.95;1.35;;;;;;;4.67;80.33;102616.00;5073702;28;20053;-77
2023/03/04 05:06:15;;;;;;;5.15;1.27;;;;;;;4.67;80.45;102612.59;5074297;28;20072;-77
2023/03/04 05:08:42;;;;;;;6.20;1.17;;;;;;;4.68;80.31;102619.41;5072492;28;20095;-78
2023/03/04 05:11:08;;;;;;;7.65;1.35;;;;;;;4.66;80.35;102614.47;5072748;28;20041;-77
2023/03/04 05:13:35;;;;;;;11.70;1.48;;;;;;;4.67;80.33;102613.38;5074016;28;20048;-77
2023/03/04 05:16:01;;;;;;;10.15;1.70;;;;;;;4.66;80.54;102611.06;5071864;28;20092;-78
2023/03/04 05:18:28;;;;;;;8.05;1.25;;;;;;;4.66;81.08;102611.06;5073183;28;20041;-78
2023/03/04 05:20:58;;;;;;;7.40;1.08;;;;;;;4.65;81.23;102612.19;5072445;28;20102;-78
2023/03/04 05:23:25;;;;;;;8.18;1.67;;;;;;;4.66;81.08;102617.13;5073094;28;20120;-77
2023/03/04 05:25:52;;;;;;;3.25;1.20;;;;;;;4.66;81.29;102611.06;5072352;28;20494;-77
2023/03/04 05:28:19;;;;;;;3.35;1.20;;;;;;;4.66;81.61;102616.34;5073662;28;20045;-77
2023/03/04 05:30:46;;;;;;;5.15;1.50;;;;;;;4.67;81.79;102618.63;5073877;28;20482;-77
2023/03/04 05:33:14;;;;;;;6.75;1.27;;;;;;;4.68;81.53;102606.22;5073094;28;20076;-77
2023/03/04 05:35:42;;;;;;;2.60;1.00;;;;;;;4.66;81.89;102619.75;5073725;28;20049;-77
2023/03/04 05:38:11;;;;;;;3.15;1.88;;;;;;;4.68;81.88;102614.13;5073940;28;20502;-77
2023/03/04 05:40:38;;;;;;;6.80;1.20;;;;;;;4.68;81.96;102611.50;5073663;28;20107;-77
2023/03/04 05:43:05;;;;;;;7.90;1.35;;;;;;;4.67;82.43;102621.28;5075057;28;20049;-77
2023/03/04 05:45:32;;;;;;;9.80;1.40;;;;;;;4.67;82.63;102612.59;5075118;28;20041;-77
2023/03/04 05:47:59;;;;;;;5.95;1.30;;;;;;;4.67;82.90;102617.88;5075423;28;20049;-77
2023/03/04 05:50:25;;;;;;;10.13;1.23;;;;;;;4.66;83.14;102624.25;5073826;28;20092;-77
2023/03/04 05:52:53;;;;;;;8.43;2.03;;;;;;;4.66;83.28;102619.75;5055761;28;20049;-77
2023/03/04 05:55:20;;;;;;;5.30;1.40;;;;;;;4.66;83.34;102617.13;5073556;28;20103;-77
2023/03/04 05:57:47;;;;;;;6.93;0.98;;;;;;;4.66;83.36;102613.72;5073369;28;20413;-77
2023/03/04 06:00:15;;;;;;;1.85;1.08;;;;;;;4.65;83.52;102614.81;5073338;28;20513;-77
2023/03/04 06:02:42;;;;;;;4.75;1.45;;;;;;;4.66;83.81;102616.34;5072692;28;20612;-77
2023/03/04 06:05:11;;;;;;;8.35;1.23;;;;;;;4.65;83.81;102615.59;5073354;28;20473;-77
2023/03/04 06:07:38;;;;;;;7.32;1.10;;;;;;;4.66;84.04;102611.84;5073262;28;20076;-77
2023/03/04 06:10:06;;;;;;;11.35;1.35;;;;;;;4.65;84.13;102615.59;5073503;28;20119;-78
2023/03/04 06:12:32;;;;;;;3.38;0.93;;;;;;;4.65;84.06;102618.22;5072582;28;20067;-77
2023/03/04 06:14:59;;;;;;;8.23;1.00;;;;;;;4.65;84.23;102612.94;5072302;28;20045;-77
2023/03/04 06:17:25;;;;;;;5.95;1.20;;;;;;;4.66;84.32;102614.47;5071998;28;20049;-77
2023/03/04 06:19:51;;;;;;;3.42;1.45;;;;;;;4.65;84.27;102609.56;5073394;28;20064;-77
2023/03/04 06:22:18;;;;;;;4.93;1.45;;;;;;;4.65;84.44;102615.59;5073050;28;20045;-77
2023/03/04 06:24:44;;;;;;;9.38;1.02;;;;;;;4.65;84.72;102614.81;5072949;28;20488;-77
2023/03/04 06:27:12;;;;;;;6.07;1.33;;;;;;;4.65;84.66;102620.88;5071687;28;20112;-77
2023/03/04 06:29:38;;;;;;;9.73;1.50;;;;;;;4.64;84.81;102616.69;5072909;28;20068;-77
2023/03/04 06:32:05;;;;;;;4.38;1.08;;;;;;;4.64;84.69;102621.97;5072333;28;20069;-77
2023/03/04 06:34:32;;;;;;;5.30;0.95;;;;;;;4.64;85.18;102621.22;5071791;28;20053;-77
2023/03/04 06:36:59;;;;;;;6.20;1.58;;;;;;;4.63;85.60;102623.09;5073008;28;20549;-76
2023/03/04 06:39:25;;;;;;;1.42;0.95;;;;;;;4.62;85.82;102620.81;5071902;28;20203;-77
2023/03/04 06:41:52;;;;;;;8.80;1.35;;;;;;;4.64;85.93;102629.91;5072759;28;20148;-77
2023/03/04 06:44:18;;;;;;;4.13;1.10;;;;;;;4.64;86.36;102627.25;5072401;28;20176;-77
2023/03/04 06:46:45;;;;;;;7.63;1.25;;;;;;;4.64;86.16;102629.13;5072007;28;20509;-77
2023/03/04 06:49:11;;;;;;;8.55;1.05;;;;;;;4.64;86.70;102631.78;5072544;28;20494;-77
2023/03/04 06:51:38;;;;;;;9.82;1.40;;;;;;;4.67;86.68;102623.16;5072296;28;20524;-77
2023/03/04 06:54:04;;;;;;;2.88;0.95;;;;;;;4.68;86.58;102619.41;5071880;28;20123;-77
2023/03/04 06:56:31;;;;;;;8.20;1.35;;;;;;;4.68;87.04;102627.31;5072826;28;20093;-77
2023/03/04 06:58:57;;;;;;;9.90;1.20;;;;;;;4.66;86.86;102625.03;5071719;28;20056;-78
2023/03/04 07:01:26;;;;;;;5.38;1.50;;;;;;;4.65;86.73;102626.16;5070535;28;20057;-78
2023/03/04 07:03:54;;;;;;;6.38;1.55;;;;;;;4.69;86.62;102631.47;5071785;28;20131;-79
2023/03/04 07:06:23;;;;;;;4.15;1.00;;;;;;;4.72;86.60;102638.69;5070451;28;20048;-79
2023/03/04 07:08:51;;;;;;;5.05;1.10;;;;;;;4.76;86.78;102631.59;5069242;28;20064;-78
2023/03/04 07:11:18;;;;;;;7.18;1.17;;;;;;;4.78;86.65;102636.53;5070589;28;20104;-78
2023/03/04 07:13:45;;;;;;;4.57;1.33;;;;;;;4.79;86.83;102643.31;5072149;28;20442;-77
2023/03/04 07:16:16;;;;;;;6.25;1.52;;;;;;;4.77;87.69;102641.03;5072177;28;20447;-78
2023/03/04 07:18:43;;;;;;;4.72;1.00;;;;;;;4.75;88.27;102642.50;5073233;28;20072;-77
2023/03/04 07:21:12;;;;;;;9.20;1.20;;;;;;;4.78;89.04;102642.56;5071953;28;20555;-78
2023/03/04 07:23:38;;;;;;;8.45;1.00;;;;;;;4.83;88.90;102641.47;5072563;28;20128;-80
2023/03/04 07:26:06;;;;;;;4.80;1.02;;;;;;;4.89;88.76;102640.06;5072781;28;20049;-80
2023/03/04 07:28:33;;;;;;;6.80;1.42;;;;;;;4.94;88.94;102643.19;5072059;28;20048;-78
2023/03/04 07:31:12;;;;;;;9.25;1.38;;;;;;;5.02;88.82;102644.06;5071662;28;20146;-78
2023/03/04 07:33:38;;;;;;;6.30;1.20;;;;;;;5.09;88.73;102640.75;5072094;28;20041;-79
2023/03/04 07:36:05;;;;;;;3.15;1.13;;;;;;;5.19;88.55;102637.50;5072970;28;20067;-79
2023/03/04 07:38:32;;;;;;;3.22;0.90;;;;;;;5.25;88.49;102641.34;5071795;28;20103;-77
2023/03/04 07:40:59;;;;;;;10.07;0.90;;;;;;;5.27;88.40;102641.75;5072482;28;20103;-81
2023/03/04 07:43:26;;;;;;;11.25;1.58;;;;;;;5.29;88.51;102642.91;5071703;28;20041;-79
2023/03/04 07:45:58;;;;;;;10.43;1.15;;;;;;;5.33;88.56;102645.63;5072572;28;20094;-79
2023/03/04 07:48:25;;;;;;;3.80;0.90;;;;;;;5.36;88.46;102648.31;5054106;28;20472;-81
2023/03/04 07:51:02;;;;;;;2.75;0.77;;;;;;;5.40;88.32;102640.44;5071264;28;20045;-79
2023/03/04 07:53:29;;;;;;;3.25;1.10;;;;;;;5.44;88.20;102645.75;5072320;28;20103;-79
2023/03/04 07:55:56;;;;;;;4.63;1.08;;;;;;;5.53;88.28;102651.56;5072468;28;20041;-79
2023/03/04 07:58:22;;;;;;;3.95;1.27;;;;;;;5.59;87.70;102647.47;5071589;28;20045;-78
2023/03/04 08:00:49;;;;;;;1.85;0.90;;;;;;;5.60;87.74;102652.38;5071980;28;20041;-79
2023/03/04 08:03:16;;;;;;;7.63;1.83;;;;;;;5.65;87.54;102656.59;5072128;28;20048;-77
2023/03/04 08:05:42;;;;;;;4.80;1.42;;;;;;;5.72;87.35;102654.03;5072286;28;20052;-76
2023/03/04 08:08:09;;;;;;;3.00;1.08;;;;;;;5.74;87.25;102654.44;5072019;28;20045;-77
2023/03/04 08:10:38;;;;;;;5.13;0.88;;;;;;;5.81;87.21;102659.06;5072322;28;20045;-78
2023/03/04 08:13:06;;;;;;;5.45;1.15;;;;;;;5.91;86.96;102659.22;5071748;28;20041;-74
2023/03/04 08:15:34;;;;;;;10.25;1.00;;;;;;;5.99;86.69;102662.72;5070524;28;20107;-75
2023/03/04 08:18:01;;;;;;;3.20;0.85;;;;;;;5.98;85.90;102666.47;5071896;28;20045;-77
2023/03/04 08:20:27;;;;;;;3.88;1.15;;;;;;;5.94;86.14;102666.44;5070033;28;20142;-76
2023/03/04 08:22:54;;;;;;;4.97;1.17;;;;;;;5.94;87.04;102665.66;5072112;28;20156;-76
2023/03/04 08:25:20;;;;;;;5.50;0.93;;;;;;;5.91;88.35;102671.69;5071535;28;20049;-79
2023/03/04 08:27:47;;;;;;;5.28;0.93;;;;;;;5.87;89.23;102670.84;5071275;28;20073;-80
2023/03/04 08:30:14;;;;;;;2.97;0.95;;;;;;;5.90;90.25;102670.16;5070099;28;20702;-77
2023/03/04 08:32:40;;;;;;;5.88;1.23;;;;;;;6.00;90.01;102670.25;5071045;28;20057;-76
2023/03/04 08:35:07;;;;;;;1.13;0.85;;;;;;;6.11;90.27;102675.66;5071966;28;20037;-77
2023/03/04 08:37:33;;;;;;;1.63;0.85;;;;;;;6.12;89.97;102665.84;5071297;28;20045;-77
2023/03/04 08:40:00;;;;;;;2.60;1.20;;;;;;;6.13;89.50;102667.38;5070135;28;20541;-77
2023/03/04 08:42:27;;;;;;;6.18;0.98;;;;;;;6.26;89.22;102676.59;5066310;28;20045;-77
2023/03/04 08:44:53;;;;;;;3.13;0.98;;;;;;;6.35;88.97;102669.88;5068589;28;20107;-77
2023/03/04 08:47:20;;;;;;;2.47;1.13;;;;;;;6.40;88.18;102678.63;5071488;28;20048;-77
2023/03/04 08:49:47;;;;;;;4.88;1.20;;;;;;;6.42;87.85;102679.00;5071045;28;20045;-77
2023/03/04 08:52:13;;;;;;;6.20;0.90;;;;;;;6.42;87.42;102668.41;5074855;28;20080;-75
2023/03/04 08:54:40;;;;;;;3.45;0.85;;;;;;;6.45;87.44;102676.38;5075232;28;20155;-75
2023/03/04 08:57:06;;;;;;;1.58;0.82;;;;;;;6.48;87.35;102672.25;5070624;28;20049;-76
2023/03/04 08:59:33;;;;;;;9.60;1.05;;;;;;;6.45;87.76;102679.03;5074581;28;20159;-76
2023/03/04 09:02:03;;;;;;;7.07;1.38;;;;;;;6.47;88.21;102666.19;5074684;28;20037;-75
2023/03/04 09:04:29;;;;;;;2.95;0.88;;;;;;;6.47;88.63;102673.38;5074751;28;20049;-76
2023/03/04 09:06:56;;;;;;;2.88;0.80;;;;;;;6.49;88.71;102673.78;5074521;28;20048;-76
2023/03/04 09:09:22;;;;;;;4.55;0.77;;;;;;;6.53;88.65;102671.94;5074303;28;20126;-76
2023/03/04 09:11:49;;;;;;;2.85;0.70;;;;;;;6.65;89.25;102672.44;5074354;28;20134;-78
2023/03/04 09:14:16;;;;;;;1.80;0.85;;;;;;;6.83;89.03;102663.84;5070522;28;20048;-77
2023/03/04 09:16:42;;;;;;;1.52;0.90;;;;;;;6.99;88.55;102659.06;5073974;28;20045;-76
2023/03/04 09:19:08;;;;;;;1.20;0.75;;;;;;;7.06;88.25;102653.81;5074693;28;20111;-76
2023/03/04 09:21:35;;;;;;;4.90;0.68;;;;;;;7.14;87.74;102666.00;5074668;28;20100;-77
2023/03/04 09:24:02;;;;;;;1.65;0.60;;;;;;;7.14;87.23;102652.75;5074452;28;20111;-76
2023/03/04 09:26:29;;;;;;;1.95;0.50;;;;;;;7.15;87.23;102658.81;5073758;28;20513;-76
2023/03/04 09:28:58;;;;;;;6.18;0.60;;;;;;;7.19;86.89;102659.59;5072619;28;20053;-77
2023/03/04 09:31:27;;;;;;;3.20;1.10;;;;;;;7.20;86.59;102663.72;5074063;28;20492;-76
2023/03/04 09:33:54;;;;;;;4.75;0.82;;;;;;;7.19;87.03;102663.00;5074131;28;20059;-77
2023/03/04 09:36:21;;;;;;;1.90;0.88;;;;;;;7.24;87.71;102657.34;5073985;28;20052;-77
2023/03/04 09:38:48;;;;;;;1.33;0.80;;;;;;;7.25;87.54;102652.78;5074233;28;20037;-74
2023/03/04 09:41:19;;;;;;;2.67;0.70;;;;;;;7.30;87.59;102658.50;5073533;28;20480;-78
2023/03/04 09:43:48;;;;;;;2.47;0.70;;;;;;;7.39;87.54;102660.06;5074000;28;20057;-76
2023/03/04 09:46:24;;;;;;;2.28;0.57;;;;;;;7.49;87.00;102654.84;5073723;28;20426;-78
2023/03/04 09:48:54;;;;;;;2.50;0.85;;;;;;;7.54;86.50;102651.84;5074452;28;20541;-77
2023/03/04 09:51:22;;;;;;;1.05;0.85;;;;;;;7.54;85.97;102646.53;5072641;28;20045;-78
2023/03/04 09:54:05;;;;;;;1.98;0.65;;;;;;;7.56;85.87;102643.50;5073685;28;20486;-77
2023/03/04 09:56:35;;;;;;;0.50;0.50;;;;;;;7.60;84.86;102652.22;5082638;28;20053;-77
2023/03/04 09:59:37;;;;;;;1.95;0.57;;;;;;;7.81;85.05;102648.91;5073812;28;20121;-77
2023/03/04 10:02:19;;;;;;;1.05;0.70;;;;;;;7.89;83.74;102639.84;5073376;28;20057;-77
2023/03/04 10:04:51;;;;;;;;;;;;;;;7.86;83.59;102641.34;5074474;28;20053;-77
2023/03/04 10:07:23;;;;;;;2.22;0.80;;;;;;;7.99;82.88;102631.91;5071929;28;19987;-77
2023/03/04 10:09:59;;;;;;;1.60;0.88;;;;;;;8.02;82.43;102633.78;5073492;28;20540;-78
2023/03/04 10:12:30;;;;;;;3.75;0.95;;;;;;;7.98;82.69;102633.06;5071341;28;20049;-78
2023/03/04 10:15:02;;;;;;;1.25;0.82;;;;;;;8.00;82.74;102627.34;5071820;28;20524;-79
2023/03/04 10:17:38;;;;;;;5.80;0.63;;;;;;;7.85;82.30;102636.41;5073119;28;20566;-80
2023/03/04 10:20:08;;;;;;;2.63;0.98;;;;;;;7.80;82.62;102631.47;5073599;28;20119;-79
2023/03/04 10:22:41;;;;;;;4.25;0.77;;;;;;;7.77;82.98;102627.69;5071491;28;20073;-78
2023/03/04 10:25:14;;;;;;;2.17;0.60;;;;;;;7.82;82.72;102626.56;5072045;28;20463;-78
2023/03/04 10:27:47;;;;;;;3.38;0.90;;;;;;;7.80;82.13;102629.59;5121140;27;20045;-77
2023/03/04 10:30:29;;;;;;;2.47;0.65;;;;;;;7.77;82.38;102616.31;5073365;28;20541;-78
2023/03/04 10:32:56;;;;;;;5.20;0.80;;;;;;;7.90;82.47;102622.78;5068031;28;20049;-78
2023/03/04 10:35:27;;;;;;;3.35;0.50;;;;;;;7.97;81.10;102620.16;5072736;28;20106;-83
2023/03/04 10:37:53;;;;;;;0.80;0.70;;;;;;;8.09;80.91;102619.78;5073045;28;20487;-80
2023/03/04 10:40:23;;;;;;;2.97;0.60;;;;;;;8.23;80.01;102624.38;5072422;28;20485;-78
2023/03/04 10:42:50;;;;;;;2.08;0.75;;;;;;;8.35;79.70;102618.75;5072966;28;20116;-80
2023/03/04 10:45:29;;;;;;;8.30;4.38;;;;;;;8.31;79.17;102618.69;5072664;28;20084;-79
2023/03/04 10:47:57;;;;;;;6.05;0.93;;;;;;;8.29;79.09;102613.00;5058813;28;20044;-79
2023/03/04 10:50:27;;;;;;;2.35;0.82;;;;;;;8.33;79.30;102619.13;5072703;28;20068;-77
2023/03/04 10:52:55;;;;;;;1.65;0.73;;;;;;;8.41;79.60;102625.16;5072421;28;20539;-77
2023/03/04 10:55:41;;;;;;;2.75;0.90;;;;;;;8.42;79.14;102617.97;5072433;28;20049;-77
2023/03/04 10:58:14;;;;;;;3.55;0.80;;;;;;;8.49;78.82;102618.72;5059741;28;20558;-77
2023/03/04 11:00:41;;;;;;;3.22;0.90;;;;;;;8.57;78.77;102614.19;5072986;28;20073;-77
2023/03/04 11:03:29;;;;;;;5.00;1.50;;;;;;;8.58;78.89;102618.34;5068429;28;20056;-77
2023/03/04 11:06:05;;;;;;;1.27;1.17;;;;;;;8.53;79.08;102608.88;5058140;28;20548;-77
2023/03/04 11:08:32;;;;;;;1.25;0.60;;;;;;;8.58;78.77;102605.06;5070412;28;20053;-77
2023/03/04 11:10:58;;;;;;;1.00;0.70;;;;;;;8.50;79.27;102603.56;5072636;28;20132;-77
2023/03/04 11:13:25;;;;;;;1.95;0.90;;;;;;;8.46;80.07;102616.06;5071565;28;20498;-78
2023/03/04 11:15:57;;;;;;;1.33;0.90;;;;;;;8.31;81.61;102612.63;5072579;28;20144;-78
2023/03/04 11:18:42;;;;;;;4.40;0.63;;;;;;;8.20;83.24;102615.28;5072634;28;20073;-77
2023/03/04 11:21:16;;;;;;;3.20;0.98;;;;;;;8.16;85.13;102609.19;5070705;28;20048;-76
2023/03/04 11:24:00;;;;;;;1.65;0.80;;;;;;;8.21;85.80;102606.19;5072216;28;20045;-77
2023/03/04 11:26:38;;;;;;;1.98;0.82;;;;;;;8.18;86.65;102612.25;5072312;28;20048;-80
2023/03/04 11:29:07;;;;;;;1.40;0.88;;;;;;;8.14;87.82;102611.47;5072798;28;20503;-76
2023/03/04 11:31:47;;;;;;;1.60;0.95;;;;;;;8.05;88.48;102616.38;5071941;28;20529;-78
2023/03/04 11:34:36;;;;;;;0.70;0.35;;;;;;;7.89;88.47;102606.13;5070372;28;20123;-76
2023/03/04 11:37:29;;;;;;;2.78;1.10;;;;;;;7.88;88.82;102612.56;5072949;28;20045;-77